Time;durP1;ratioP1;P1;durP2;ratioP2;P2;SDS_P1;SDS_P2;PMS_P1;PMS_P2;Temp;Humidity;BMP_temperature;BMP_pressure;BME280_temperature;BME280_humidity;BME280_pressure;Samples;Min_cycle;Max_cycle;Signal;HPM_P1;HPM_P2
2022/08/19 00:00:14;;;;;;;21.40;5.25;;;28.20;90.40;;;;;;5053249;28;20021;-75
2022/08/19 00:02:41;;;;;;;23.45;5.05;;;28.10;90.50;;;;;;5052898;28;20028;-74
2022/08/19 00:05:08;;;;;;;25.23;5.13;;;28.10;90.30;;;;;;5052639;28;20029;-74
2022/08/19 00:07:35;;;;;;;24.17;5.35;;;28.10;90.20;;;;;;5052933;28;20574;-75
2022/08/19 00:10:00;;;;;;;27.30;4.88;;;28.10;90.00;;;;;;5052932;28;20076;-76
2022/08/19 00:12:26;;;;;;;24.50;5.13;;;28.20;90.00;;;;;;5052916;28;20029;-74
2022/08/19 00:14:53;;;;;;;25.17;5.38;;;28.20;90.00;;;;;;5052163;28;20021;-75
2022/08/19 00:17:20;;;;;;;20.52;4.95;;;28.20;90.10;;;;;;5052783;28;20013;-76
2022/08/19 00:19:47;;;;;;;28.20;5.22;;;28.10;90.10;;;;;;5052961;28;20037;-74
2022/08/19 00:22:13;;;;;;;22.60;4.57;;;28.10;90.50;;;;;;5052937;28;20025;-77
2022/08/19 00:24:40;;;;;;;19.85;4.15;;;28.10;90.30;;;;;;5052692;28;20028;-76
2022/08/19 00:27:06;;;;;;;22.42;5.10;;;28.10;90.00;;;;;;5052322;28;20652;-75
2022/08/19 00:29:32;;;;;;;20.70;4.90;;;28.20;89.80;;;;;;5052491;28;20040;-75
2022/08/19 00:31:59;;;;;;;18.83;4.65;;;28.20;89.10;;;;;;5052985;28;20387;-74
2022/08/19 00:34:27;;;;;;;21.58;4.60;;;28.20;89.20;;;;;;5053423;28;20029;-74
2022/08/19 00:36:55;;;;;;;20.55;4.85;;;28.20;89.50;;;;;;5053468;28;20045;-74
2022/08/19 00:39:21;;;;;;;19.35;4.43;;;28.20;90.20;;;;;;5053246;28;20039;-74
2022/08/19 00:41:49;;;;;;;23.15;4.80;;;28.10;90.10;;;;;;5053319;28;20021;-74
2022/08/19 00:44:16;;;;;;;20.27;4.28;;;28.00;90.10;;;;;;5053754;28;20025;-76
2022/08/19 00:46:45;;;;;;;18.98;4.13;;;28.00;90.30;;;;;;5052032;28;20508;-75
2022/08/19 00:49:22;;;;;;;20.65;4.95;;;28.00;90.40;;;;;;5053865;28;20021;-76
2022/08/19 00:51:53;;;;;;;20.88;4.75;;;28.00;90.80;;;;;;5053380;28;20028;-76
2022/08/19 00:54:20;;;;;;;22.90;4.80;;;27.90;90.50;;;;;;5053511;28;20013;-75
2022/08/19 00:56:47;;;;;;;22.40;4.63;;;27.90;90.70;;;;;;5053204;28;20098;-74
2022/08/19 00:59:15;;;;;;;20.02;4.63;;;27.80;90.90;;;;;;5053494;28;20029;-74
2022/08/19 01:01:43;;;;;;;26.65;5.00;;;27.80;91.10;;;;;;5053525;28;20025;-74
2022/08/19 01:04:09;;;;;;;18.63;4.28;;;27.80;90.90;;;;;;5053339;28;20022;-75
2022/08/19 01:06:41;;;;;;;17.65;4.25;;;27.80;91.10;;;;;;5051559;28;20078;-74
2022/08/19 01:09:07;;;;;;;17.92;4.10;;;27.80;91.10;;;;;;5053419;28;20025;-75
2022/08/19 01:11:38;;;;;;;24.65;4.45;;;27.70;90.90;;;;;;5055791;28;20079;-75
2022/08/19 01:14:06;;;;;;;17.08;4.38;;;27.70;91.10;;;;;;5055163;28;20107;-74
2022/08/19 01:16:34;;;;;;;19.42;4.22;;;27.70;91.10;;;;;;5055737;28;20040;-73
2022/08/19 01:19:01;;;;;;;19.35;4.80;;;27.80;91.20;;;;;;5053417;28;20114;-74
2022/08/19 01:21:34;;;;;;;19.48;4.53;;;27.80;91.20;;;;;;5053281;28;20104;-75
2022/08/19 01:24:00;;;;;;;21.70;4.93;;;27.80;91.20;;;;;;5053219;28;20491;-74
2022/08/19 01:26:26;;;;;;;16.17;3.83;;;27.80;91.20;;;;;;5054527;28;20077;-76
2022/08/19 01:28:55;;;;;;;20.77;4.43;;;27.90;91.30;;;;;;5055776;28;20025;-75
2022/08/19 01:31:23;;;;;;;17.10;4.20;;;27.90;91.30;;;;;;5056524;28;20033;-75
2022/08/19 01:33:53;;;;;;;20.73;4.65;;;27.90;91.10;;;;;;5054338;28;20029;-75
2022/08/19 01:36:27;;;;;;;17.83;3.67;;;27.90;91.20;;;;;;5055711;28;20112;-76
2022/08/19 01:38:53;;;;;;;19.33;4.82;;;27.90;91.30;;;;;;5055588;28;20374;-75
2022/08/19 01:41:19;;;;;;;22.60;5.03;;;27.90;91.70;;;;;;5055356;28;20462;-74
2022/08/19 01:43:45;;;;;;;22.55;5.82;;;27.80;92.20;;;;;;5055385;28;20143;-75
2022/08/19 01:46:12;;;;;;;23.55;4.43;;;27.70;92.30;;;;;;5055454;28;20504;-75
2022/08/19 01:48:40;;;;;;;19.75;4.22;;;27.70;92.60;;;;;;5055890;28;20029;-74
2022/08/19 01:51:07;;;;;;;22.63;4.70;;;27.70;92.40;;;;;;5058173;28;20021;-75
2022/08/19 01:53:34;;;;;;;21.90;4.10;;;27.70;92.40;;;;;;5056232;28;20025;-76
2022/08/19 01:56:00;;;;;;;21.15;4.85;;;27.70;92.30;;;;;;5055158;28;20033;-75
2022/08/19 01:58:32;;;;;;;21.70;4.60;;;27.70;92.30;;;;;;5055268;28;20066;-74
2022/08/19 02:00:58;;;;;;;21.08;4.32;;;27.80;92.40;;;;;;5055432;28;20028;-75
2022/08/19 02:03:24;;;;;;;21.50;4.25;;;27.70;92.40;;;;;;5055153;28;20021;-74
2022/08/19 02:05:56;;;;;;;17.20;3.78;;;27.70;92.50;;;;;;5055005;28;20083;-74
2022/08/19 02:08:22;;;;;;;18.70;4.53;;;27.70;92.60;;;;;;5055033;28;20021;-76
2022/08/19 02:10:48;;;;;;;24.85;4.97;;;27.70;92.80;;;;;;5055140;28;20079;-74
2022/08/19 02:13:13;;;;;;;22.45;4.78;;;27.70;92.80;;;;;;5055054;28;20435;-74
2022/08/19 02:15:39;;;;;;;15.07;4.15;;;27.70;92.70;;;;;;5054725;28;20033;-74
2022/08/19 02:18:06;;;;;;;18.40;4.32;;;27.70;92.60;;;;;;5054687;28;20088;-75
2022/08/19 02:20:31;;;;;;;17.85;4.15;;;27.60;92.30;;;;;;5054583;28;20550;-75
2022/08/19 02:22:57;;;;;;;17.58;4.38;;;27.60;92.00;;;;;;5054792;28;20021;-75
2022/08/19 02:25:23;;;;;;;18.40;4.18;;;27.60;91.90;;;;;;5053050;28;20394;-75
2022/08/19 02:27:48;;;;;;;17.35;4.30;;;27.50;91.50;;;;;;5054517;28;20139;-74
2022/08/19 02:30:16;;;;;;;16.00;4.00;;;27.50;91.30;;;;;;5054471;28;20074;-75
2022/08/19 02:32:43;;;;;;;18.48;3.83;;;27.50;91.00;;;;;;5054566;28;20112;-74
2022/08/19 02:35:09;;;;;;;19.75;4.53;;;27.50;91.00;;;;;;5053248;28;20027;-74
2022/08/19 02:40:19;;;;;;;16.33;4.00;;;27.40;91.10;;;;;;5054842;28;20106;-74
2022/08/19 02:42:45;;;;;;;20.60;3.90;;;27.30;90.80;;;;;;5054406;28;20036;-74
2022/08/19 02:45:13;;;;;;;15.38;3.45;;;27.30;91.00;;;;;;5053956;28;20043;-73
2022/08/19 02:47:39;;;;;;;22.48;4.45;;;27.30;90.50;;;;;;5054083;28;20466;-75
2022/08/19 02:50:05;;;;;;;14.38;3.90;;;27.30;90.60;;;;;;5054242;28;20028;-75
2022/08/19 02:52:33;;;;;;;19.55;4.05;;;27.30;90.60;;;;;;5053970;28;20033;-75
2022/08/19 02:54:59;;;;;;;27.30;3.97;;;27.30;90.50;;;;;;5052731;28;20021;-74
2022/08/19 02:57:26;;;;;;;18.45;3.75;;;27.30;90.50;;;;;;5053939;28;20017;-74
2022/08/19 02:59:52;;;;;;;17.98;4.10;;;27.30;90.60;;;;;;5052764;28;20497;-74
2022/08/19 03:02:18;;;;;;;21.55;4.28;;;27.30;90.30;;;;;;5054004;28;20029;-74
2022/08/19 03:04:44;;;;;;;24.98;4.60;;;27.30;90.30;;;;;;5053971;28;20102;-75
2022/08/19 03:07:13;;;;;;;21.63;4.15;;;27.30;90.30;;;;;;5053575;28;20040;-74
2022/08/19 03:09:39;;;;;;;19.00;3.78;;;27.20;90.20;;;;;;5053849;28;20040;-75
2022/08/19 03:12:05;;;;;;;18.58;4.03;;;27.20;90.20;;;;;;5053720;28;20383;-75
2022/08/19 03:14:32;;;;;;;20.90;4.18;;;27.20;90.40;;;;;;5053892;28;20096;-74
2022/08/19 03:16:58;;;;;;;20.05;4.50;;;27.20;90.30;;;;;;5053670;28;20067;-75
2022/08/19 03:19:24;;;;;;;16.35;4.43;;;27.10;90.30;;;;;;5053647;28;20056;-74
2022/08/19 03:21:51;;;;;;;17.10;3.83;;;27.10;90.30;;;;;;5053530;28;20109;-76
2022/08/19 03:24:18;;;;;;;19.55;4.57;;;27.10;90.20;;;;;;5053443;28;20025;-74
2022/08/19 03:26:51;;;;;;;21.83;4.35;;;27.20;90.10;;;;;;5053177;28;20132;-74
2022/08/19 03:29:17;;;;;;;23.40;4.93;;;27.20;90.00;;;;;;5053411;28;20095;-76
2022/08/19 03:31:44;;;;;;;19.05;4.30;;;27.20;90.00;;;;;;5054154;28;20035;-75
2022/08/19 03:34:12;;;;;;;19.02;4.15;;;27.20;90.00;;;;;;5055066;28;20027;-75
2022/08/19 03:36:38;;;;;;;18.95;4.85;;;27.20;89.80;;;;;;5056389;28;20025;-76
2022/08/19 03:39:05;;;;;;;19.80;3.92;;;27.20;89.80;;;;;;5061452;28;20464;-75
2022/08/19 03:41:36;;;;;;;18.58;3.63;;;27.20;89.60;;;;;;5058197;28;20053;-75
2022/08/19 03:44:02;;;;;;;18.65;4.60;;;27.20;89.50;;;;;;5053842;28;20021;-75
2022/08/19 03:46:31;;;;;;;16.17;3.50;;;27.10;89.30;;;;;;5053603;28;20116;-75
2022/08/19 03:48:59;;;;;;;21.55;4.57;;;27.10;89.20;;;;;;5053501;28;20056;-74
2022/08/19 03:51:34;;;;;;;23.23;4.75;;;27.10;89.10;;;;;;5053769;28;20079;-75
2022/08/19 03:54:02;;;;;;;18.42;4.05;;;27.10;88.90;;;;;;5053695;28;20466;-75
2022/08/19 03:56:28;;;;;;;16.83;4.40;;;27.00;89.00;;;;;;5054069;28;20029;-75
2022/08/19 03:58:56;;;;;;;15.07;3.63;;;27.00;89.10;;;;;;5053821;28;20028;-74
2022/08/19 04:01:26;;;;;;;16.55;3.70;;;27.10;89.10;;;;;;5053885;28;20090;-76
2022/08/19 04:03:52;;;;;;;14.02;3.83;;;27.10;88.80;;;;;;5053777;28;20471;-75
2022/08/19 04:06:23;;;;;;;18.67;4.90;;;27.10;88.90;;;;;;5053395;28;20162;-74
2022/08/19 04:08:53;;;;;;;17.27;4.55;;;27.10;89.00;;;;;;5053598;28;20028;-75
2022/08/19 04:11:22;;;;;;;20.27;4.25;;;27.00;89.00;;;;;;5054017;28;20021;-75
2022/08/19 04:13:50;;;;;;;17.75;4.38;;;27.00;88.90;;;;;;5054344;28;20021;-76
2022/08/19 04:16:17;;;;;;;16.02;5.03;;;27.00;88.90;;;;;;5064684;28;20048;-76
2022/08/19 04:18:43;;;;;;;15.82;3.95;;;26.90;88.80;;;;;;5072389;28;20006;-74
2022/08/19 04:21:19;;;;;;;19.23;4.43;;;26.90;88.80;;;;;;5053626;28;20078;-75
2022/08/19 04:23:45;;;;;;;15.68;4.05;;;26.90;89.30;;;;;;5051822;28;20021;-75
2022/08/19 04:26:16;;;;;;;13.45;4.03;;;26.80;88.50;;;;;;5053071;28;20063;-75
2022/08/19 04:28:43;;;;;;;16.60;4.85;;;26.80;88.20;;;;;;5053308;28;20021;-75
2022/08/19 04:31:14;;;;;;;16.23;4.35;;;26.70;88.10;;;;;;5053180;28;20033;-75
2022/08/19 04:33:40;;;;;;;15.27;3.90;;;26.70;88.10;;;;;;5052644;28;20366;-76
2022/08/19 04:36:07;;;;;;;13.35;3.70;;;26.70;88.40;;;;;;5052563;28;20025;-75
2022/08/19 04:38:33;;;;;;;18.05;4.13;;;26.60;88.20;;;;;;5052577;28;20029;-75
2022/08/19 04:43:48;;;;;;;19.17;4.68;;;26.60;88.60;;;;;;5052633;28;20120;-74
2022/08/19 04:46:14;;;;;;;13.25;4.25;;;26.60;88.20;;;;;;5052398;28;20041;-75
2022/08/19 04:48:40;;;;;;;18.75;4.80;;;26.50;88.00;;;;;;5052633;28;20059;-76
2022/08/19 04:51:10;;;;;;;15.45;4.45;;;26.50;87.80;;;;;;5052631;28;20052;-76
2022/08/19 04:53:37;;;;;;;16.40;4.60;;;26.50;87.20;;;;;;5053918;28;20025;-75
2022/08/19 04:56:16;;;;;;;13.77;4.30;;;26.50;87.10;;;;;;5057238;28;20025;-75
2022/08/19 04:58:44;;;;;;;18.30;4.78;;;26.50;86.90;;;;;;5052502;28;20155;-75
2022/08/19 05:01:25;;;;;;;16.27;4.50;;;26.50;86.70;;;;;;5053847;28;20071;-75
2022/08/19 05:03:51;;;;;;;18.08;4.00;;;26.50;86.70;;;;;;5056396;28;20028;-75
2022/08/19 05:06:19;;;;;;;16.98;4.63;;;26.50;86.60;;;;;;5055986;28;20032;-75
2022/08/19 05:08:46;;;;;;;16.45;4.10;;;26.50;86.30;;;;;;5056187;28;20037;-75
2022/08/19 05:11:20;;;;;;;16.52;4.50;;;26.50;86.00;;;;;;5056368;28;20031;-75
2022/08/19 05:13:48;;;;;;;17.95;4.13;;;26.50;85.40;;;;;;5056742;28;20528;-75
2022/08/19 05:16:17;;;;;;;13.70;3.97;;;26.50;84.90;;;;;;5056164;28;20032;-75
2022/08/19 05:24:14;;;;;;;14.52;4.03;;;26.60;84.50;;;;;;5055838;28;20504;-76
2022/08/19 05:26:46;;;;;;;15.55;4.80;;;26.70;83.60;;;;;;5055723;28;20049;-76
2022/08/19 05:29:13;;;;;;;16.85;5.40;;;26.70;83.10;;;;;;5056106;28;20036;-77
2022/08/19 05:31:39;;;;;;;14.43;5.05;;;26.80;83.10;;;;;;5055954;28;20035;-76
2022/08/19 05:34:06;;;;;;;14.27;4.95;;;26.80;82.70;;;;;;5055820;28;20036;-77
2022/08/19 05:36:42;;;;;;;15.70;4.97;;;26.90;82.30;;;;;;5055712;28;20481;-75
2022/08/19 05:39:12;;;;;;;17.58;4.75;;;26.90;82.00;;;;;;5055655;28;20426;-75
2022/08/19 05:41:49;;;;;;;12.43;4.35;;;27.00;81.90;;;;;;5055594;28;20051;-75
2022/08/19 05:44:16;;;;;;;15.70;4.40;;;27.10;82.50;;;;;;5055705;28;20052;-76
2022/08/19 05:46:46;;;;;;;13.15;3.88;;;27.20;81.50;;;;;;5055478;28;20029;-74
2022/08/19 05:49:15;;;;;;;17.02;4.10;;;27.20;81.00;;;;;;5055533;28;20428;-74
2022/08/19 05:51:42;;;;;;;14.70;4.47;;;27.30;80.90;;;;;;5055650;28;20136;-76
2022/08/19 05:54:11;;;;;;;15.32;5.03;;;27.30;80.30;;;;;;5055666;28;20021;-76
2022/08/19 05:56:37;;;;;;;11.15;4.10;;;27.40;80.10;;;;;;5044227;28;20056;-76
2022/08/19 05:59:09;;;;;;;12.18;4.05;;;27.50;80.40;;;;;;5036821;28;20458;-75
2022/08/19 06:01:35;;;;;;;17.35;4.22;;;27.70;78.70;;;;;;5036537;28;20021;-75
2022/08/19 06:04:02;;;;;;;12.55;3.85;;;28.00;79.00;;;;;;5035574;28;20044;-76
2022/08/19 06:06:28;;;;;;;14.43;4.30;;;28.20;78.20;;;;;;5034998;28;20116;-75
2022/08/19 06:08:54;;;;;;;13.82;3.75;;;28.40;77.40;;;;;;5037588;28;20039;-76
2022/08/19 06:11:35;;;;;;;14.13;4.10;;;28.60;76.70;;;;;;5053883;28;20021;-75
2022/08/19 06:14:10;;;;;;;15.50;4.03;;;28.80;75.10;;;;;;5054105;28;20163;-77
2022/08/19 06:16:40;;;;;;;10.48;3.75;;;29.10;75.90;;;;;;5054971;28;20029;-75
2022/08/19 06:19:10;;;;;;;14.75;3.60;;;29.60;73.60;;;;;;5055245;28;20459;-76
2022/08/19 06:21:40;;;;;;;12.38;3.80;;;30.00;72.70;;;;;;5049691;28;20021;-82
2022/08/19 06:24:09;;;;;;;14.02;3.72;;;30.40;71.10;;;;;;5035263;28;20068;-80
2022/08/19 06:26:37;;;;;;;13.05;3.78;;;30.70;69.80;;;;;;5043726;28;20069;-80
2022/08/19 06:29:08;;;;;;;9.48;3.75;;;31.00;68.50;;;;;;5038066;28;20017;-79
2022/08/19 06:31:36;;;;;;;11.77;3.50;;;31.20;67.60;;;;;;5037409;28;20391;-79
2022/08/19 06:34:03;;;;;;;14.90;4.00;;;31.40;65.90;;;;;;5033270;28;20060;-77
2022/08/19 06:36:33;;;;;;;17.92;4.07;;;31.60;64.80;;;;;;5039918;28;20116;-78
2022/08/19 06:39:19;;;;;;;10.82;3.08;;;31.80;63.70;;;;;;5031623;28;20018;-76
2022/08/19 06:41:48;;;;;;;17.30;3.75;;;31.90;62.40;;;;;;5033084;28;20033;-81
2022/08/19 06:44:15;;;;;;;11.93;3.42;;;31.90;62.70;;;;;;5037187;28;20402;-78
2022/08/19 06:46:41;;;;;;;12.35;3.50;;;31.90;62.10;;;;;;5031923;28;20080;-80
2022/08/19 06:49:11;;;;;;;12.75;3.47;;;32.10;61.70;;;;;;5035911;28;20474;-78
2022/08/19 06:51:37;;;;;;;10.80;3.55;;;32.20;60.50;;;;;;5034834;28;20026;-78
2022/08/19 06:54:04;;;;;;;9.25;2.75;;;32.30;60.10;;;;;;5037061;28;20459;-78
2022/08/19 06:56:34;;;;;;;11.95;3.22;;;32.30;58.30;;;;;;5032389;28;20026;-77
2022/08/19 06:59:09;;;;;;;11.05;3.00;;;32.30;58.70;;;;;;5020156;28;20048;-77
2022/08/19 07:01:41;;;;;;;9.80;3.17;;;32.30;57.30;;;;;;5036067;28;20037;-75
2022/08/19 07:04:09;;;;;;;10.82;3.17;;;32.10;58.70;;;;;;5038731;28;20032;-82
2022/08/19 07:06:36;;;;;;;9.27;2.90;;;31.90;58.90;;;;;;5035401;28;20090;-79
2022/08/19 07:09:04;;;;;;;12.60;3.05;;;31.70;59.20;;;;;;5034781;28;20022;-80
2022/08/19 07:11:30;;;;;;;8.30;2.47;;;31.30;59.30;;;;;;5032948;28;20152;-79
2022/08/19 07:13:56;;;;;;;9.52;2.90;;;31.00;59.80;;;;;;5034293;28;20109;-77
2022/08/19 07:16:22;;;;;;;9.88;3.00;;;30.80;60.20;;;;;;5034166;28;20030;-78
2022/08/19 07:18:50;;;;;;;12.82;2.88;;;30.80;60.50;;;;;;5034018;28;20645;-76
2022/08/19 07:21:22;;;;;;;11.70;3.28;;;30.90;60.10;;;;;;5034495;28;20486;-81
2022/08/19 07:23:48;;;;;;;13.20;3.45;;;31.00;59.80;;;;;;5032641;28;20022;-80
2022/08/19 07:26:23;;;;;;;17.30;3.35;;;31.10;59.60;;;;;;5034012;28;20122;-80
2022/08/19 07:28:50;;;;;;;16.50;3.38;;;31.20;58.30;;;;;;5034192;28;20021;-78
2022/08/19 07:31:19;;;;;;;9.93;2.75;;;31.40;58.60;;;;;;5034020;28;20049;-81
2022/08/19 07:33:46;;;;;;;13.90;3.70;;;31.50;58.30;;;;;;5034100;28;20368;-79
2022/08/19 07:36:14;;;;;;;13.10;2.80;;;31.60;58.00;;;;;;5033962;28;20029;-78
2022/08/19 07:38:47;;;;;;;9.25;3.15;;;31.60;57.70;;;;;;5034257;28;20120;-79
2022/08/19 07:41:15;;;;;;;10.60;2.80;;;31.60;57.10;;;;;;5032642;28;20033;-81
2022/08/19 07:43:45;;;;;;;11.95;2.85;;;31.60;57.00;;;;;;5032768;28;20031;-79
2022/08/19 07:46:13;;;;;;;9.20;2.97;;;31.40;56.00;;;;;;5033756;28;20497;-81
2022/08/19 07:48:41;;;;;;;12.40;3.15;;;31.30;57.60;;;;;;5033900;28;20060;-81
2022/08/19 07:51:09;;;;;;;10.48;3.00;;;31.10;57.90;;;;;;5032319;28;20382;-78
2022/08/19 07:53:36;;;;;;;12.15;2.85;;;30.80;58.50;;;;;;5033920;28;20021;-81
2022/08/19 07:56:03;;;;;;;9.95;2.80;;;30.60;58.40;;;;;;5032139;28;20053;-69
2022/08/19 07:58:35;;;;;;;15.98;3.65;;;30.70;60.00;;;;;;5033302;28;20018;-73
2022/08/19 08:01:01;;;;;;;13.35;3.15;;;30.80;58.70;;;;;;5043000;28;20029;-68
2022/08/19 08:11:50;;;;;;;7.07;2.65;;;30.90;55.90;;;;;;5033281;28;20044;-69
2022/08/19 08:14:19;;;;;;;10.75;2.58;;;30.90;54.80;;;;;;5032897;28;20112;-69
2022/08/19 08:16:46;;;;;;;10.25;2.50;;;30.90;55.80;;;;;;5032674;28;20067;-70
2022/08/19 08:19:16;;;;;;;8.57;2.40;;;30.90;55.30;;;;;;5032812;28;20356;-71
2022/08/19 08:21:43;;;;;;;6.72;2.70;;;30.90;55.20;;;;;;5033292;28;20363;-72
2022/08/19 08:24:09;;;;;;;9.23;2.65;;;30.80;54.90;;;;;;5033933;28;20335;-70
2022/08/19 08:26:34;;;;;;;24.90;3.60;;;30.70;54.90;;;;;;5040313;28;20045;-70
2022/08/19 08:29:01;;;;;;;14.25;3.70;;;30.60;55.20;;;;;;5032763;28;20040;-69
2022/08/19 08:31:27;;;;;;;33.55;5.65;;;30.50;55.70;;;;;;5032224;28;20029;-70
2022/08/19 08:33:52;;;;;;;18.88;3.33;;;30.60;55.80;;;;;;5032292;28;20379;-71
2022/08/19 08:36:18;;;;;;;10.82;2.80;;;30.70;55.70;;;;;;5033982;28;20025;-70
2022/08/19 08:38:47;;;;;;;14.70;2.83;;;30.70;55.40;;;;;;5036745;28;20032;-69
2022/08/19 08:41:32;;;;;;;9.38;2.70;;;30.70;54.60;;;;;;5036779;28;20482;-71
2022/08/19 08:43:58;;;;;;;12.27;2.78;;;30.80;55.50;;;;;;5036253;28;20029;-70
2022/08/19 08:46:26;;;;;;;11.02;3.03;;;30.80;55.80;;;;;;5036091;28;20079;-71
2022/08/19 08:49:00;;;;;;;17.25;3.92;;;30.80;56.10;;;;;;5036305;28;20045;-70
2022/08/19 08:51:48;;;;;;;20.58;4.07;;;30.70;57.40;;;;;;5049746;28;20021;-71
2022/08/19 08:54:17;;;;;;;9.38;2.92;;;30.40;59.30;;;;;;5056497;28;20060;-70
2022/08/19 08:56:45;;;;;;;16.50;3.45;;;30.10;61.20;;;;;;5057506;28;20100;-72
2022/08/19 08:59:26;;;;;;;13.40;3.22;;;29.90;62.10;;;;;;5056207;28;20032;-73
2022/08/19 09:01:52;;;;;;;11.88;3.03;;;29.80;62.80;;;;;;5056216;28;20040;-76
2022/08/19 09:04:18;;;;;;;14.90;3.17;;;29.70;63.40;;;;;;5056241;28;20028;-69
2022/08/19 09:07:11;;;;;;;12.88;3.42;;;29.60;63.40;;;;;;5056555;28;20103;-76
2022/08/19 09:09:43;;;;;;;17.33;3.17;;;29.40;63.70;;;;;;5053134;28;20431;-77
2022/08/19 09:12:56;;;;;;;20.38;4.05;;;29.30;64.90;;;;;;5055952;28;20366;-71
2022/08/19 09:15:29;;;;;;;14.10;3.50;;;29.20;66.50;;;;;;5045979;28;20040;-73
2022/08/19 09:18:01;;;;;;;17.60;4.10;;;29.20;66.40;;;;;;5055662;28;20081;-74
2022/08/19 09:20:27;;;;;;;14.32;3.95;;;29.30;66.70;;;;;;5055784;28;20055;-71
2022/08/19 09:22:53;;;;;;;15.25;3.72;;;29.30;67.00;;;;;;5055584;28;20036;-74
2022/08/19 09:25:24;;;;;;;26.15;4.75;;;29.40;67.00;;;;;;5055432;28;20374;-72
2022/08/19 09:27:53;;;;;;;22.15;3.95;;;29.50;67.10;;;;;;5050067;28;20172;-74
2022/08/19 09:30:28;;;;;;;14.10;3.80;;;29.50;67.10;;;;;;5035289;28;20157;-74
2022/08/19 09:32:55;;;;;;;15.75;3.85;;;29.60;65.10;;;;;;5035604;28;20060;-73
2022/08/19 09:35:26;;;;;;;12.13;3.42;;;29.70;64.70;;;;;;5035269;28;20025;-72
2022/08/19 09:37:53;;;;;;;15.27;3.65;;;29.80;63.90;;;;;;5035196;28;20029;-75
2022/08/19 09:40:19;;;;;;;9.85;3.50;;;29.90;62.80;;;;;;5035378;28;20215;-71
2022/08/19 09:42:47;;;;;;;12.77;3.58;;;29.90;63.20;;;;;;5035309;28;20112;-73
2022/08/19 09:45:17;;;;;;;15.57;3.78;;;29.90;62.80;;;;;;5035140;28;20021;-73
2022/08/19 09:47:43;;;;;;;10.45;3.60;;;29.80;62.70;;;;;;5034005;28;20034;-71
2022/08/19 09:50:11;;;;;;;8.85;3.17;;;29.80;62.50;;;;;;5037901;28;20025;-71
2022/08/19 09:52:37;;;;;;;13.35;3.60;;;29.70;62.00;;;;;;5035334;28;20105;-72
2022/08/19 09:55:06;;;;;;;10.88;3.30;;;29.60;61.50;;;;;;5035183;28;20026;-72
2022/08/19 09:57:32;;;;;;;15.52;3.15;;;29.70;60.90;;;;;;5035307;28;20052;-73
2022/08/19 09:59:58;;;;;;;10.63;3.20;;;29.80;61.20;;;;;;5035369;28;20155;-72
2022/08/19 10:02:24;;;;;;;7.03;2.72;;;29.80;61.00;;;;;;5035144;28;20151;-72
2022/08/19 10:07:35;;;;;;;10.80;3.00;;;29.90;59.30;;;;;;5034909;28;20147;-72
2022/08/19 10:10:01;;;;;;;10.25;3.50;;;29.90;59.40;;;;;;5037363;28;20482;-72
2022/08/19 10:12:26;;;;;;;8.68;3.03;;;29.90;60.70;;;;;;5047351;28;20049;-71
2022/08/19 10:14:54;;;;;;;9.15;2.97;;;29.90;60.00;;;;;;5054807;28;20059;-71
2022/08/19 10:17:20;;;;;;;12.27;3.10;;;30.00;59.00;;;;;;5054796;28;20025;-73
2022/08/19 10:19:46;;;;;;;11.27;2.70;;;30.00;57.90;;;;;;5051677;28;20337;-72
2022/08/19 10:22:13;;;;;;;10.68;2.92;;;30.00;58.50;;;;;;5050138;28;20025;-72
2022/08/19 10:24:39;;;;;;;9.30;3.38;;;30.10;58.90;;;;;;5054611;28;20028;-71
2022/08/19 10:27:06;;;;;;;9.10;3.10;;;30.10;58.10;;;;;;5054082;28;20090;-71
2022/08/19 10:29:34;;;;;;;8.80;3.10;;;30.10;59.20;;;;;;5054604;28;20025;-70
2022/08/19 10:32:07;;;;;;;8.95;2.95;;;30.10;58.70;;;;;;5054333;28;20063;-71
2022/08/19 10:34:33;;;;;;;10.25;3.08;;;30.20;57.70;;;;;;5054624;28;20113;-72
2022/08/19 10:37:00;;;;;;;9.70;2.78;;;30.20;57.60;;;;;;5054397;28;20470;-72
2022/08/19 10:39:29;;;;;;;10.57;2.75;;;30.10;56.90;;;;;;5051184;28;20436;-69
2022/08/19 10:41:55;;;;;;;11.23;3.50;;;30.10;57.00;;;;;;5014708;28;20037;-72
2022/08/19 10:44:22;;;;;;;10.20;3.15;;;30.00;56.70;;;;;;5014628;28;20110;-73
2022/08/19 10:46:48;;;;;;;9.77;3.15;;;29.90;56.60;;;;;;5044877;28;20041;-71
2022/08/19 10:49:14;;;;;;;10.80;3.25;;;29.80;57.10;;;;;;5054324;28;20476;-72
2022/08/19 10:56:50;;;;;;;13.20;3.30;;;29.80;57.90;;;;;;5048348;28;20111;-71
2022/08/19 10:57:12;;;;;;;9.95;2.90;;;29.80;59.50;;;;;;5034092;28;20033;-70
2022/08/19 10:59:38;;;;;;;15.25;3.58;;;29.70;61.60;;;;;;5033831;28;20075;-73
2022/08/19 11:02:09;;;;;;;11.90;3.22;;;29.80;62.50;;;;;;5034297;28;20112;-72
2022/08/19 11:04:36;;;;;;;14.07;3.85;;;29.80;64.40;;;;;;5034517;28;20105;-72
2022/08/19 11:07:03;;;;;;;12.88;3.70;;;29.70;65.30;;;;;;5033888;28;20030;-71
2022/08/19 11:09:29;;;;;;;16.00;4.13;;;29.70;66.00;;;;;;5065841;28;20026;-71
2022/08/19 11:11:56;;;;;;;15.52;4.00;;;29.50;66.70;;;;;;5034019;28;20513;-74
2022/08/19 11:14:23;;;;;;;12.05;4.00;;;29.40;67.50;;;;;;5033859;28;20109;-72
2022/08/19 11:16:50;;;;;;;11.68;3.40;;;29.40;68.20;;;;;;5033732;28;20474;-73
2022/08/19 11:19:18;;;;;;;12.55;3.65;;;29.30;68.40;;;;;;5033919;28;20033;-70
2022/08/19 11:21:47;;;;;;;13.50;3.55;;;29.30;68.20;;;;;;5034231;28;20037;-71
2022/08/19 11:24:20;;;;;;;9.45;2.72;;;29.20;68.30;;;;;;5033983;28;20017;-71
2022/08/19 11:26:49;;;;;;;8.30;3.00;;;29.20;67.80;;;;;;5033725;28;20535;-71
2022/08/19 11:29:15;;;;;;;10.20;2.92;;;29.20;67.20;;;;;;5065517;28;20026;-71
2022/08/19 11:31:43;;;;;;;14.70;3.08;;;29.30;66.50;;;;;;5036998;28;20451;-72
2022/08/19 11:34:12;;;;;;;10.80;3.30;;;29.40;65.20;;;;;;5052471;28;20051;-74
2022/08/19 11:36:42;;;;;;;6.93;2.55;;;29.60;64.60;;;;;;5048754;28;20026;-72
2022/08/19 11:39:09;;;;;;;9.50;2.78;;;29.70;64.60;;;;;;5042574;28;20025;-72
2022/08/19 11:41:35;;;;;;;12.18;3.10;;;29.70;63.90;;;;;;5040150;28;20025;-72
2022/08/19 11:44:02;;;;;;;12.65;2.15;;;29.80;63.40;;;;;;5033294;28;20026;-72
2022/08/19 11:46:29;;;;;;;8.13;2.60;;;29.80;63.00;;;;;;5033266;28;20355;-71
2022/08/19 11:48:56;;;;;;;13.38;2.88;;;29.90;62.60;;;;;;5032780;28;20112;-72
2022/08/19 11:51:24;;;;;;;10.30;3.17;;;30.00;62.10;;;;;;5032809;28;20048;-72
2022/08/19 11:53:50;;;;;;;6.50;2.67;;;30.20;61.90;;;;;;5033399;28;20063;-72
2022/08/19 11:56:17;;;;;;;8.07;2.70;;;30.30;61.80;;;;;;5049118;28;20033;-72
2022/08/19 11:58:43;;;;;;;9.70;2.88;;;30.30;62.10;;;;;;5053220;28;20025;-72
2022/08/19 12:01:15;;;;;;;7.95;2.40;;;30.30;61.10;;;;;;5052254;28;20339;-72
2022/08/19 12:03:41;;;;;;;9.13;2.97;;;30.20;59.70;;;;;;5052641;28;20163;-74
2022/08/19 12:06:10;;;;;;;9.82;2.90;;;30.20;60.80;;;;;;5052173;28;20032;-73
2022/08/19 12:08:35;;;;;;;12.00;3.13;;;30.20;60.70;;;;;;5052586;28;20033;-73
2022/08/19 12:11:01;;;;;;;7.38;2.40;;;30.20;60.30;;;;;;5045275;28;20075;-74
2022/08/19 12:13:28;;;;;;;7.20;2.53;;;30.30;60.00;;;;;;5032520;28;20458;-74
2022/08/19 12:15:54;;;;;;;8.88;2.38;;;30.40;58.60;;;;;;5031556;28;20021;-74
2022/08/19 12:18:20;;;;;;;6.38;2.08;;;30.50;59.10;;;;;;5032580;28;20109;-72
2022/08/19 12:20:47;;;;;;;8.50;2.67;;;30.50;58.50;;;;;;5032446;28;20049;-73
2022/08/19 12:23:13;;;;;;;10.02;3.10;;;30.50;58.40;;;;;;5032601;28;20087;-72
2022/08/19 12:25:49;;;;;;;7.10;2.33;;;30.50;58.90;;;;;;5032167;28;20041;-71
2022/08/19 12:28:16;;;;;;;8.68;2.40;;;30.60;58.40;;;;;;5032616;28;20099;-74
2022/08/19 12:30:42;;;;;;;7.20;2.45;;;30.60;57.60;;;;;;5032191;28;20022;-72
2022/08/19 12:33:09;;;;;;;6.78;2.20;;;30.60;57.00;;;;;;5032153;28;20029;-72
2022/08/19 12:35:36;;;;;;;4.72;2.40;;;30.60;56.70;;;;;;5032302;28;20028;-73
2022/08/19 12:38:02;;;;;;;7.78;2.33;;;30.70;56.80;;;;;;5030945;28;20029;-72
2022/08/19 12:40:28;;;;;;;5.57;2.40;;;30.70;55.90;;;;;;5034949;28;20029;-73
2022/08/19 12:42:54;;;;;;;6.40;2.30;;;30.60;55.30;;;;;;5036790;28;20390;-71
2022/08/19 12:45:20;;;;;;;6.60;2.20;;;30.70;55.50;;;;;;5041993;28;20029;-71
2022/08/19 12:47:46;;;;;;;6.88;2.10;;;30.60;55.10;;;;;;5041829;28;20033;-72
2022/08/19 12:50:12;;;;;;;7.43;2.30;;;30.60;55.20;;;;;;5037315;28;20036;-70
2022/08/19 12:52:38;;;;;;;6.90;2.40;;;30.60;55.10;;;;;;5032236;28;20026;-72
2022/08/19 12:55:06;;;;;;;8.10;2.55;;;30.70;55.50;;;;;;5032078;28;20053;-69
2022/08/19 12:57:35;;;;;;;9.82;2.40;;;30.60;54.60;;;;;;5031760;28;20140;-74
2022/08/19 13:00:12;;;;;;;8.57;2.28;;;30.50;54.20;;;;;;5032163;28;20029;-75
2022/08/19 13:02:40;;;;;;;6.18;2.45;;;30.40;54.40;;;;;;5032260;28;20020;-74
2022/08/19 13:05:09;;;;;;;11.20;2.70;;;30.30;54.90;;;;;;5032485;28;20048;-77
2022/08/19 13:07:37;;;;;;;13.35;2.70;;;30.20;55.00;;;;;;5032400;28;20034;-79